createdAt,value
2023-04-19T00:02:27.392Z,6.15
2023-04-19T00:06:16.415Z,6.05
2023-04-19T00:13:00.664Z,5.89
2023-04-19T00:34:26.680Z,5.41
2023-04-19T00:37:57.365Z,5.35
2023-04-19T00:41:28.018Z,5.30
2023-04-19T00:45:06.085Z,5.25
2023-04-19T00:48:38.069Z,5.20
2023-04-19T00:56:11.297Z,5.18
2023-04-19T00:59:44.600Z,5.15
2023-04-19T01:18:46.311Z,4.82
2023-04-19T01:22:15.739Z,4.72
2023-04-19T01:25:46.416Z,4.68
2023-04-19T01:32:51.976Z,4.57
2023-04-19T01:36:24.464Z,4.50
2023-04-19T01:39:16.745Z,4.37
2023-04-19T01:43:08.712Z,4.27
2023-04-19T01:46:43.503Z,4.14
2023-04-19T01:54:09.035Z,3.84
2023-04-19T02:05:08.371Z,3.47
2023-04-19T02:08:38.459Z,3.34
2023-04-19T02:12:10.259Z,3.23
2023-04-19T02:14:58.336Z,3.13
2023-04-19T02:18:02.783Z,3.07
2023-04-19T02:21:06.774Z,3.01
2023-04-19T02:24:47.317Z,2.94
2023-04-19T02:31:25.639Z,2.75
2023-04-19T02:34:30.081Z,2.68
2023-04-19T02:38:55.102Z,2.57
2023-04-19T02:42:14.613Z,2.49
2023-04-19T02:46:06.235Z,2.44
2023-04-19T03:03:58.045Z,2.08
2023-04-19T03:07:29.579Z,2.01
2023-04-19T03:11:05.694Z,1.99
2023-04-19T03:14:43.026Z,2.05
2023-04-19T03:33:59.915Z,2.02
2023-04-19T03:37:29.987Z,1.92
2023-04-19T03:40:59.232Z,1.91
2023-04-19T03:44:38.801Z,1.94
2023-04-19T03:48:08.980Z,1.96
2023-04-19T03:51:43.597Z,1.98
2023-04-19T03:55:15.391Z,2.00
2023-04-19T04:02:47.893Z,2.04
2023-04-19T04:06:39.876Z,2.07
2023-04-19T04:10:35.659Z,2.07
2023-04-19T04:13:59.697Z,1.99
2023-04-19T04:17:17.379Z,1.89
2023-04-19T04:20:50.384Z,1.89
2023-04-19T04:24:27.655Z,1.93
2023-04-19T04:27:57.124Z,2.00
2023-04-19T04:31:29.882Z,2.08
2023-04-19T04:55:52.922Z,2.79
2023-04-19T04:59:32.224Z,2.93
2023-04-19T05:05:46.705Z,3.09
2023-04-19T05:09:31.779Z,2.98
2023-04-19T05:13:10.078Z,2.97
2023-04-19T05:16:52.072Z,2.95
2023-04-19T05:20:39.595Z,2.88
2023-04-19T05:24:23.507Z,2.92
2023-04-19T05:28:09.897Z,3.13
2023-04-19T05:31:09.938Z,3.51
2023-04-19T05:34:48.217Z,3.72
2023-04-19T05:38:08.839Z,3.81
2023-04-19T05:41:40.849Z,3.80
2023-04-19T05:49:23.929Z,3.73
2023-04-19T05:52:53.886Z,3.68
2023-04-19T06:03:56.075Z,3.46
2023-04-19T06:07:34.444Z,3.43
2023-04-19T06:11:22.933Z,3.41
2023-04-19T06:14:25.793Z,3.33
2023-04-19T06:17:59.820Z,3.29
2023-04-19T06:33:46.351Z,3.62
2023-04-19T06:37:23.392Z,3.83
2023-04-19T06:41:10.080Z,4.10
2023-04-19T07:23:27.910Z,5.18
2023-04-19T07:26:24.907Z,5.32
2023-04-19T07:30:17.182Z,5.25
2023-04-19T07:33:48.808Z,5.12
2023-04-19T07:37:50.673Z,4.96
2023-04-19T07:45:18.096Z,4.57
2023-04-19T07:48:51.230Z,4.40
2023-04-19T07:52:29.422Z,4.22
2023-04-19T07:56:05.983Z,4.13
2023-04-19T08:17:46.281Z,4.28
2023-04-19T08:21:16.182Z,4.12
2023-04-19T08:24:52.951Z,3.99
2023-04-19T08:28:22.769Z,4.03
2023-04-19T08:31:54.167Z,3.98
2023-04-19T08:39:20.876Z,3.91
2023-04-19T08:43:12.318Z,3.97
2023-04-19T08:46:41.439Z,4.04
2023-04-19T08:54:12.001Z,4.25
2023-04-19T08:57:42.908Z,4.34
2023-04-19T09:01:30.998Z,4.24
2023-04-19T09:28:27.029Z,4.06
2023-04-19T09:31:57.368Z,4.06
2023-04-19T09:35:40.214Z,4.06
2023-04-19T09:50:24.030Z,4.06
2023-04-19T09:53:54.623Z,4.01
2023-04-19T09:57:22.720Z,3.97
2023-04-19T10:01:06.610Z,3.97
2023-04-19T10:08:44.175Z,3.90
2023-04-19T10:12:32.321Z,3.93
2023-04-19T10:41:59.903Z,4.40
2023-04-19T10:45:31.860Z,4.50
2023-04-19T10:49:11.430Z,4.62
2023-04-19T10:52:47.387Z,4.65
2023-04-19T10:56:17.066Z,4.68
2023-04-19T11:00:02.648Z,4.73
2023-04-19T11:27:32.629Z,5.23
2023-04-19T11:35:05.141Z,5.46
2023-04-19T11:49:47.703Z,5.53
2023-04-19T11:53:07.909Z,5.45
2023-04-19T12:00:57.160Z,5.48
2023-04-19T12:04:34.286Z,5.57
2023-04-19T12:15:41.473Z,5.71
2023-04-19T12:19:25.810Z,5.74
2023-04-19T12:26:47.395Z,5.89
2023-04-19T12:30:18.556Z,5.99
2023-04-19T12:33:51.527Z,6.14
2023-04-19T12:37:09.551Z,6.20
2023-04-19T12:52:07.683Z,6.38
2023-04-19T12:55:37.995Z,6.42
2023-04-19T12:59:11.692Z,6.41
2023-04-19T13:02:41.194Z,6.42
2023-04-19T13:06:20.947Z,6.41
2023-04-19T13:09:57.341Z,6.44
2023-04-19T13:13:38.424Z,6.49
2023-04-19T13:17:17.163Z,6.58
2023-04-19T13:21:18.180Z,6.69
2023-04-19T13:24:47.463Z,6.82
2023-04-19T13:28:22.607Z,6.87
2023-04-19T13:32:13.384Z,6.95
2023-04-19T13:35:44.608Z,7.11
2023-04-19T13:39:13.723Z,7.17
2023-04-19T13:42:54.394Z,7.27
2023-04-19T13:46:46.349Z,7.28
2023-04-19T13:53:51.490Z,7.26
2023-04-19T13:57:24.509Z,7.29
2023-04-19T14:01:02.726Z,7.37
2023-04-19T14:04:25.135Z,7.41
2023-04-19T14:08:02.287Z,7.36
2023-04-19T14:11:37.411Z,7.24
2023-04-19T14:15:06.642Z,7.11
2023-04-19T14:18:27.412Z,6.99
2023-04-19T14:51:21.796Z,6.96
2023-04-19T14:54:46.409Z,7.01
2023-04-19T14:58:42.125Z,6.97
2023-04-19T15:02:05.052Z,6.98
2023-04-19T15:08:17.527Z,6.90
2023-04-19T15:11:39.051Z,6.88
2023-04-19T15:18:24.690Z,7.02
2023-04-19T15:21:58.176Z,7.05
2023-04-19T15:25:36.991Z,7.14
2023-04-19T15:29:04.978Z,7.18
2023-04-19T15:32:44.672Z,7.24
2023-04-19T15:36:21.910Z,7.24
2023-04-19T15:39:36.064Z,7.20
2023-04-19T15:43:08.014Z,7.14
2023-04-19T15:49:44.150Z,7.05
2023-04-19T15:53:14.207Z,7.05
2023-04-19T15:59:59.347Z,7.02
2023-04-19T16:03:17.040Z,7.01
2023-04-19T16:06:53.915Z,7.03
2023-04-19T16:10:25.740Z,7.08
2023-04-19T16:17:30.872Z,7.11
2023-04-19T16:20:54.512Z,7.13
2023-04-19T16:24:23.216Z,7.12
2023-04-19T16:30:58.848Z,7.28
2023-04-19T16:34:18.100Z,7.28
2023-04-19T16:41:15.033Z,7.30
2023-04-19T16:44:54.432Z,7.31
2023-04-19T16:48:22.993Z,7.29
2023-04-19T16:51:51.732Z,7.23
2023-04-19T16:55:20.052Z,7.17
2023-04-19T16:58:31.933Z,7.07
2023-04-19T17:01:59.633Z,7.01
2023-04-19T17:05:19.921Z,6.92
2023-04-19T17:08:48.201Z,6.92
2023-04-19T17:12:07.673Z,6.89
2023-04-19T17:15:26.455Z,6.85
2023-04-19T17:19:01.158Z,6.83
2023-04-19T17:22:16.283Z,6.80
2023-04-19T17:25:58.923Z,6.78
2023-04-19T17:29:07.814Z,6.78
2023-04-19T17:35:35.099Z,6.82
2023-04-19T17:39:24.304Z,6.79
2023-04-19T17:43:03.964Z,6.76
2023-04-19T17:46:53.578Z,6.74
2023-04-19T17:50:23.429Z,6.74
2023-04-19T17:53:33.433Z,6.71
2023-04-19T17:56:59.728Z,6.70
2023-04-19T18:00:30.173Z,6.70
2023-04-19T18:04:12.690Z,6.66
2023-04-19T18:07:47.773Z,6.65
2023-04-19T18:21:26.213Z,6.58
2023-04-19T18:24:31.914Z,6.58
2023-04-19T18:28:20.030Z,6.61
